21NC weather

Isbell Heliport
Hertford, North Carolina, United States

Public forecast

Using degrees Fahrenheit for public forecast. Weather courtesy of forecast.io.

METAR (pilot weather report)

Closest report is Elizabeth City Regional Airport & Coast Guard Air Station, 6.7 nm (12.5 km) NE. Retrieved 2019/02/19 16:54 UTC (43 minutes ago):

KECG 191654Z 03007KT 350V060 10SM CLR 07/M02 A3060 RMK AO2 SLP362 T00671022

TAF (pilot weather forecast)

Closest forecast is Elizabeth City Regional Airport & Coast Guard Air Station, 6.7 nm (12.5 km) NE. Retrieved 2019/02/19 12:24 UTC (5 hours ago):

TAF KECG 191120Z 1912/2012 01010KT P6SM BKN250 FM192000 04008KT P6SM BKN250 FM200300 04006KT P6SM OVC060 FM200900 05009KT P6SM -RA OVC050